Terminal Aerodrome Forecast
Issued by NWS Missoula, MT

Home | Current Version | Previous Version | Text Only | Print | Product List | Glossary On
Versions: 1 2 3 4 5 6 7 8 9 10 11 12 13
918
FTUS45 KMSO 172320
TAFGPI
TAF
KGPI 172320Z 1800/1824 17012KT P6SM SCT100
     FM180200 24005KT P6SM SKC
     FM181600 16010KT P6SM SKC=

USA.gov is the U.S. government's official web portal to all federal, state and local government web resources and services.